sensor_id;sensor_type;location;lat;lon;timestamp;P1;durP1;ratioP1;P2;durP2;ratioP2
9138;SDS011;4604;48.616;9.548;2024-03-06T00:02:37;9.27;;;5.87;;
9138;SDS011;4604;48.616;9.548;2024-03-06T00:05:14;7.53;;;5.43;;
9138;SDS011;4604;48.616;9.548;2024-03-06T00:07:58;6.33;;;4.87;;
9138;SDS011;4604;48.616;9.548;2024-03-06T00:17:54;6.90;;;4.80;;
9138;SDS011;4604;48.616;9.548;2024-03-06T00:20:35;8.17;;;5.40;;
9138;SDS011;4604;48.616;9.548;2024-03-06T00:23:02;8.90;;;5.60;;
9138;SDS011;4604;48.616;9.548;2024-03-06T00:25:28;7.43;;;5.50;;
9138;SDS011;4604;48.616;9.548;2024-03-06T00:27:55;8.70;;;5.87;;
9138;SDS011;4604;48.616;9.548;2024-03-06T00:30:24;7.70;;;5.43;;
9138;SDS011;4604;48.616;9.548;2024-03-06T00:32:51;7.77;;;5.20;;
9138;SDS011;4604;48.616;9.548;2024-03-06T00:35:18;7.53;;;5.30;;
9138;SDS011;4604;48.616;9.548;2024-03-06T00:37:45;9.47;;;5.87;;
9138;SDS011;4604;48.616;9.548;2024-03-06T00:40:14;9.50;;;6.00;;
9138;SDS011;4604;48.616;9.548;2024-03-06T00:42:41;9.17;;;6.13;;
9138;SDS011;4604;48.616;9.548;2024-03-06T00:45:10;10.87;;;6.40;;
9138;SDS011;4604;48.616;9.548;2024-03-06T00:47:37;9.03;;;5.80;;
9138;SDS011;4604;48.616;9.548;2024-03-06T00:50:05;7.97;;;5.63;;
9138;SDS011;4604;48.616;9.548;2024-03-06T00:52:32;9.53;;;6.57;;
9138;SDS011;4604;48.616;9.548;2024-03-06T00:55:03;8.70;;;6.23;;
9138;SDS011;4604;48.616;9.548;2024-03-06T00:57:38;10.30;;;7.13;;
9138;SDS011;4604;48.616;9.548;2024-03-06T01:00:15;11.57;;;7.97;;
9138;SDS011;4604;48.616;9.548;2024-03-06T01:03:11;11.80;;;8.27;;
9138;SDS011;4604;48.616;9.548;2024-03-06T01:05:40;14.20;;;8.93;;
9138;SDS011;4604;48.616;9.548;2024-03-06T01:08:36;12.43;;;9.10;;
9138;SDS011;4604;48.616;9.548;2024-03-06T01:11:42;15.23;;;9.80;;
9138;SDS011;4604;48.616;9.548;2024-03-06T01:17:54;11.50;;;8.40;;
9138;SDS011;4604;48.616;9.548;2024-03-06T01:20:22;12.73;;;8.73;;
9138;SDS011;4604;48.616;9.548;2024-03-06T01:23:00;14.20;;;9.87;;
9138;SDS011;4604;48.616;9.548;2024-03-06T01:25:31;13.97;;;9.67;;
9138;SDS011;4604;48.616;9.548;2024-03-06T01:28:09;14.03;;;9.63;;
9138;SDS011;4604;48.616;9.548;2024-03-06T01:30:41;14.20;;;10.13;;
9138;SDS011;4604;48.616;9.548;2024-03-06T01:33:19;11.40;;;8.50;;
9138;SDS011;4604;48.616;9.548;2024-03-06T01:35:47;14.47;;;9.93;;
9138;SDS011;4604;48.616;9.548;2024-03-06T01:38:19;13.13;;;9.17;;
9138;SDS011;4604;48.616;9.548;2024-03-06T01:40:48;16.17;;;10.20;;
9138;SDS011;4604;48.616;9.548;2024-03-06T01:43:21;15.43;;;9.63;;
9138;SDS011;4604;48.616;9.548;2024-03-06T01:45:51;15.40;;;9.60;;
9138;SDS011;4604;48.616;9.548;2024-03-06T01:48:20;17.60;;;10.47;;
9138;SDS011;4604;48.616;9.548;2024-03-06T01:50:52;16.27;;;9.93;;
9138;SDS011;4604;48.616;9.548;2024-03-06T01:53:21;17.97;;;11.07;;
9138;SDS011;4604;48.616;9.548;2024-03-06T01:55:48;19.37;;;10.50;;
9138;SDS011;4604;48.616;9.548;2024-03-06T01:58:15;14.03;;;9.27;;
9138;SDS011;4604;48.616;9.548;2024-03-06T02:00:41;15.47;;;9.73;;
9138;SDS011;4604;48.616;9.548;2024-03-06T02:03:08;15.57;;;9.80;;
9138;SDS011;4604;48.616;9.548;2024-03-06T02:05:36;12.97;;;9.30;;
9138;SDS011;4604;48.616;9.548;2024-03-06T02:08:03;12.80;;;9.30;;
9138;SDS011;4604;48.616;9.548;2024-03-06T02:10:34;14.93;;;10.10;;
9138;SDS011;4604;48.616;9.548;2024-03-06T02:13:01;14.87;;;9.53;;
9138;SDS011;4604;48.616;9.548;2024-03-06T02:15:28;14.67;;;9.93;;
9138;SDS011;4604;48.616;9.548;2024-03-06T02:17:55;16.63;;;10.50;;
9138;SDS011;4604;48.616;9.548;2024-03-06T02:20:23;18.90;;;11.97;;
9138;SDS011;4604;48.616;9.548;2024-03-06T02:22:50;19.17;;;11.87;;
9138;SDS011;4604;48.616;9.548;2024-03-06T02:25:17;16.87;;;11.03;;
9138;SDS011;4604;48.616;9.548;2024-03-06T02:27:45;17.97;;;11.20;;
9138;SDS011;4604;48.616;9.548;2024-03-06T02:30:13;18.30;;;11.23;;
9138;SDS011;4604;48.616;9.548;2024-03-06T02:32:40;14.93;;;10.30;;
9138;SDS011;4604;48.616;9.548;2024-03-06T02:35:08;14.47;;;10.23;;
9138;SDS011;4604;48.616;9.548;2024-03-06T02:37:36;15.40;;;10.07;;
9138;SDS011;4604;48.616;9.548;2024-03-06T02:40:04;14.13;;;8.87;;
9138;SDS011;4604;48.616;9.548;2024-03-06T02:42:35;15.63;;;10.27;;
9138;SDS011;4604;48.616;9.548;2024-03-06T02:45:02;16.70;;;10.27;;
9138;SDS011;4604;48.616;9.548;2024-03-06T02:47:29;15.67;;;10.70;;
9138;SDS011;4604;48.616;9.548;2024-03-06T02:49:56;11.90;;;9.03;;
9138;SDS011;4604;48.616;9.548;2024-03-06T02:52:22;16.40;;;10.03;;
9138;SDS011;4604;48.616;9.548;2024-03-06T02:54:51;18.03;;;9.80;;
9138;SDS011;4604;48.616;9.548;2024-03-06T02:57:20;14.40;;;9.93;;
9138;SDS011;4604;48.616;9.548;2024-03-06T02:59:47;13.67;;;9.63;;
9138;SDS011;4604;48.616;9.548;2024-03-06T03:02:22;16.67;;;10.07;;
9138;SDS011;4604;48.616;9.548;2024-03-06T03:04:54;15.47;;;10.53;;
9138;SDS011;4604;48.616;9.548;2024-03-06T03:07:27;14.67;;;10.30;;
9138;SDS011;4604;48.616;9.548;2024-03-06T03:10:04;12.63;;;8.93;;
9138;SDS011;4604;48.616;9.548;2024-03-06T03:12:32;15.63;;;10.27;;
9138;SDS011;4604;48.616;9.548;2024-03-06T03:14:59;15.13;;;10.50;;
9138;SDS011;4604;48.616;9.548;2024-03-06T03:17:31;14.80;;;10.23;;
9138;SDS011;4604;48.616;9.548;2024-03-06T03:20:07;14.60;;;9.63;;
9138;SDS011;4604;48.616;9.548;2024-03-06T03:22:45;15.33;;;9.77;;
9138;SDS011;4604;48.616;9.548;2024-03-06T03:25:26;15.13;;;9.60;;
9138;SDS011;4604;48.616;9.548;2024-03-06T03:28:03;13.43;;;9.43;;
9138;SDS011;4604;48.616;9.548;2024-03-06T03:30:33;15.53;;;9.93;;
9138;SDS011;4604;48.616;9.548;2024-03-06T03:33:05;16.03;;;9.80;;
9138;SDS011;4604;48.616;9.548;2024-03-06T03:35:37;13.03;;;9.40;;
9138;SDS011;4604;48.616;9.548;2024-03-06T03:38:04;15.07;;;10.43;;
9138;SDS011;4604;48.616;9.548;2024-03-06T03:40:36;14.13;;;9.53;;
9138;SDS011;4604;48.616;9.548;2024-03-06T03:43:03;12.73;;;8.97;;
9138;SDS011;4604;48.616;9.548;2024-03-06T03:45:33;13.10;;;8.73;;
9138;SDS011;4604;48.616;9.548;2024-03-06T03:48:04;13.70;;;9.40;;
9138;SDS011;4604;48.616;9.548;2024-03-06T03:50:31;14.23;;;9.33;;
9138;SDS011;4604;48.616;9.548;2024-03-06T03:52:58;13.30;;;8.67;;
9138;SDS011;4604;48.616;9.548;2024-03-06T03:55:26;12.90;;;8.20;;
9138;SDS011;4604;48.616;9.548;2024-03-06T03:57:54;10.07;;;7.57;;
9138;SDS011;4604;48.616;9.548;2024-03-06T04:00:22;13.20;;;8.20;;
9138;SDS011;4604;48.616;9.548;2024-03-06T04:02:48;12.43;;;8.03;;
9138;SDS011;4604;48.616;9.548;2024-03-06T04:05:15;11.87;;;7.90;;
9138;SDS011;4604;48.616;9.548;2024-03-06T04:07:42;12.53;;;8.07;;
9138;SDS011;4604;48.616;9.548;2024-03-06T04:10:10;11.73;;;7.60;;
9138;SDS011;4604;48.616;9.548;2024-03-06T04:12:40;11.50;;;7.53;;
9138;SDS011;4604;48.616;9.548;2024-03-06T04:15:12;10.13;;;6.63;;
9138;SDS011;4604;48.616;9.548;2024-03-06T04:17:45;11.17;;;7.43;;
9138;SDS011;4604;48.616;9.548;2024-03-06T04:20:14;10.77;;;7.00;;
9138;SDS011;4604;48.616;9.548;2024-03-06T04:22:41;11.07;;;7.50;;
9138;SDS011;4604;48.616;9.548;2024-03-06T04:25:17;11.27;;;7.33;;
9138;SDS011;4604;48.616;9.548;2024-03-06T04:27:44;10.17;;;7.33;;
9138;SDS011;4604;48.616;9.548;2024-03-06T04:30:13;10.33;;;6.80;;
9138;SDS011;4604;48.616;9.548;2024-03-06T04:32:40;12.60;;;7.97;;
9138;SDS011;4604;48.616;9.548;2024-03-06T04:35:07;11.47;;;6.87;;
9138;SDS011;4604;48.616;9.548;2024-03-06T04:37:35;9.83;;;7.00;;
9138;SDS011;4604;48.616;9.548;2024-03-06T04:40:02;10.00;;;7.30;;
9138;SDS011;4604;48.616;9.548;2024-03-06T04:42:32;15.33;;;7.23;;
9138;SDS011;4604;48.616;9.548;2024-03-06T04:45:00;9.50;;;7.00;;
9138;SDS011;4604;48.616;9.548;2024-03-06T04:47:29;12.70;;;7.50;;
9138;SDS011;4604;48.616;9.548;2024-03-06T04:49:56;11.27;;;7.30;;
9138;SDS011;4604;48.616;9.548;2024-03-06T04:52:24;10.97;;;7.33;;
9138;SDS011;4604;48.616;9.548;2024-03-06T04:54:50;10.67;;;7.47;;
9138;SDS011;4604;48.616;9.548;2024-03-06T04:57:20;11.77;;;7.63;;
9138;SDS011;4604;48.616;9.548;2024-03-06T04:59:46;16.43;;;7.47;;
9138;SDS011;4604;48.616;9.548;2024-03-06T05:02:22;10.50;;;7.40;;
9138;SDS011;4604;48.616;9.548;2024-03-06T05:05:00;11.17;;;7.40;;
9138;SDS011;4604;48.616;9.548;2024-03-06T05:07:38;14.00;;;8.60;;
9138;SDS011;4604;48.616;9.548;2024-03-06T05:10:05;13.87;;;8.43;;
9138;SDS011;4604;48.616;9.548;2024-03-06T05:12:34;11.27;;;7.97;;
9138;SDS011;4604;48.616;9.548;2024-03-06T05:15:01;12.67;;;8.17;;
9138;SDS011;4604;48.616;9.548;2024-03-06T05:17:27;13.43;;;8.57;;
9138;SDS011;4604;48.616;9.548;2024-03-06T05:19:54;12.13;;;8.43;;
9138;SDS011;4604;48.616;9.548;2024-03-06T05:22:22;17.50;;;8.90;;
9138;SDS011;4604;48.616;9.548;2024-03-06T05:24:49;17.27;;;9.47;;
9138;SDS011;4604;48.616;9.548;2024-03-06T05:27:15;16.03;;;9.67;;
9138;SDS011;4604;48.616;9.548;2024-03-06T05:29:42;12.93;;;9.03;;
9138;SDS011;4604;48.616;9.548;2024-03-06T05:32:09;15.73;;;9.57;;
9138;SDS011;4604;48.616;9.548;2024-03-06T05:34:36;14.00;;;8.93;;
9138;SDS011;4604;48.616;9.548;2024-03-06T05:37:02;16.60;;;9.83;;
9138;SDS011;4604;48.616;9.548;2024-03-06T05:39:32;16.80;;;9.83;;
9138;SDS011;4604;48.616;9.548;2024-03-06T05:42:00;14.27;;;9.30;;
9138;SDS011;4604;48.616;9.548;2024-03-06T05:44:28;14.17;;;9.67;;
9138;SDS011;4604;48.616;9.548;2024-03-06T05:46:55;14.97;;;10.07;;
9138;SDS011;4604;48.616;9.548;2024-03-06T05:49:22;14.93;;;9.23;;
9138;SDS011;4604;48.616;9.548;2024-03-06T05:51:49;12.83;;;8.60;;
9138;SDS011;4604;48.616;9.548;2024-03-06T05:54:16;14.53;;;9.60;;
9138;SDS011;4604;48.616;9.548;2024-03-06T05:56:44;16.13;;;10.60;;
9138;SDS011;4604;48.616;9.548;2024-03-06T05:59:10;17.30;;;10.47;;
9138;SDS011;4604;48.616;9.548;2024-03-06T06:01:37;16.30;;;9.83;;
9138;SDS011;4604;48.616;9.548;2024-03-06T06:04:04;21.37;;;11.87;;
9138;SDS011;4604;48.616;9.548;2024-03-06T06:06:31;17.33;;;10.53;;
9138;SDS011;4604;48.616;9.548;2024-03-06T06:08:58;16.17;;;9.87;;
9138;SDS011;4604;48.616;9.548;2024-03-06T06:11:24;16.80;;;9.77;;
9138;SDS011;4604;48.616;9.548;2024-03-06T06:13:52;17.20;;;10.87;;
9138;SDS011;4604;48.616;9.548;2024-03-06T06:16:19;16.47;;;9.43;;
9138;SDS011;4604;48.616;9.548;2024-03-06T06:18:46;17.83;;;11.27;;
9138;SDS011;4604;48.616;9.548;2024-03-06T06:21:15;19.57;;;11.03;;
9138;SDS011;4604;48.616;9.548;2024-03-06T06:23:43;17.07;;;10.43;;
9138;SDS011;4604;48.616;9.548;2024-03-06T06:26:10;15.60;;;10.43;;
9138;SDS011;4604;48.616;9.548;2024-03-06T06:28:36;17.43;;;11.77;;
9138;SDS011;4604;48.616;9.548;2024-03-06T06:31:05;17.67;;;11.17;;
9138;SDS011;4604;48.616;9.548;2024-03-06T06:33:31;14.80;;;10.63;;
9138;SDS011;4604;48.616;9.548;2024-03-06T06:35:58;17.27;;;10.50;;
9138;SDS011;4604;48.616;9.548;2024-03-06T06:38:25;18.13;;;11.27;;
9138;SDS011;4604;48.616;9.548;2024-03-06T06:40:52;16.17;;;11.03;;
9138;SDS011;4604;48.616;9.548;2024-03-06T06:43:18;15.83;;;10.53;;
9138;SDS011;4604;48.616;9.548;2024-03-06T06:45:45;16.60;;;11.07;;
9138;SDS011;4604;48.616;9.548;2024-03-06T06:48:13;23.83;;;11.33;;
9138;SDS011;4604;48.616;9.548;2024-03-06T06:50:39;17.93;;;12.13;;
9138;SDS011;4604;48.616;9.548;2024-03-06T06:53:06;17.10;;;11.30;;
9138;SDS011;4604;48.616;9.548;2024-03-06T06:55:33;19.63;;;11.63;;
9138;SDS011;4604;48.616;9.548;2024-03-06T06:58:01;21.57;;;12.03;;
9138;SDS011;4604;48.616;9.548;2024-03-06T07:00:27;16.80;;;11.57;;
9138;SDS011;4604;48.616;9.548;2024-03-06T07:02:55;21.47;;;11.53;;
9138;SDS011;4604;48.616;9.548;2024-03-06T07:05:25;18.97;;;12.03;;
9138;SDS011;4604;48.616;9.548;2024-03-06T07:07:51;17.53;;;11.00;;
9138;SDS011;4604;48.616;9.548;2024-03-06T07:10:18;17.83;;;10.67;;
9138;SDS011;4604;48.616;9.548;2024-03-06T07:12:45;15.70;;;10.30;;
9138;SDS011;4604;48.616;9.548;2024-03-06T07:15:12;16.73;;;10.90;;
9138;SDS011;4604;48.616;9.548;2024-03-06T07:17:38;17.03;;;11.80;;
9138;SDS011;4604;48.616;9.548;2024-03-06T07:20:05;14.53;;;10.30;;
9138;SDS011;4604;48.616;9.548;2024-03-06T07:22:35;17.87;;;10.93;;
9138;SDS011;4604;48.616;9.548;2024-03-06T07:25:02;17.13;;;10.40;;
9138;SDS011;4604;48.616;9.548;2024-03-06T07:27:30;18.67;;;11.30;;
9138;SDS011;4604;48.616;9.548;2024-03-06T07:29:57;16.50;;;10.77;;
9138;SDS011;4604;48.616;9.548;2024-03-06T07:32:23;17.63;;;11.13;;
9138;SDS011;4604;48.616;9.548;2024-03-06T07:34:50;17.73;;;11.43;;
9138;SDS011;4604;48.616;9.548;2024-03-06T07:37:17;19.83;;;12.03;;
9138;SDS011;4604;48.616;9.548;2024-03-06T07:39:45;19.57;;;11.63;;
9138;SDS011;4604;48.616;9.548;2024-03-06T07:42:12;14.87;;;9.83;;
9138;SDS011;4604;48.616;9.548;2024-03-06T07:44:40;17.00;;;10.20;;
9138;SDS011;4604;48.616;9.548;2024-03-06T07:47:07;18.13;;;10.33;;
9138;SDS011;4604;48.616;9.548;2024-03-06T07:49:33;15.87;;;9.97;;
9138;SDS011;4604;48.616;9.548;2024-03-06T07:52:01;15.40;;;10.37;;
9138;SDS011;4604;48.616;9.548;2024-03-06T07:54:27;18.20;;;10.10;;
9138;SDS011;4604;48.616;9.548;2024-03-06T07:56:55;14.73;;;9.73;;
9138;SDS011;4604;48.616;9.548;2024-03-06T07:59:22;19.13;;;10.27;;
9138;SDS011;4604;48.616;9.548;2024-03-06T08:01:48;19.27;;;10.53;;
9138;SDS011;4604;48.616;9.548;2024-03-06T08:04:15;17.70;;;10.27;;
9138;SDS011;4604;48.616;9.548;2024-03-06T08:06:42;19.63;;;9.97;;
9138;SDS011;4604;48.616;9.548;2024-03-06T08:09:09;20.43;;;11.17;;
9138;SDS011;4604;48.616;9.548;2024-03-06T08:11:36;14.20;;;9.60;;
9138;SDS011;4604;48.616;9.548;2024-03-06T08:14:05;16.30;;;9.50;;
9138;SDS011;4604;48.616;9.548;2024-03-06T08:16:32;17.97;;;10.63;;
9138;SDS011;4604;48.616;9.548;2024-03-06T08:18:59;16.50;;;10.50;;
9138;SDS011;4604;48.616;9.548;2024-03-06T08:21:25;18.83;;;9.90;;
9138;SDS011;4604;48.616;9.548;2024-03-06T08:23:53;16.23;;;10.37;;
9138;SDS011;4604;48.616;9.548;2024-03-06T08:26:19;17.23;;;10.63;;
9138;SDS011;4604;48.616;9.548;2024-03-06T08:28:46;18.97;;;10.13;;
9138;SDS011;4604;48.616;9.548;2024-03-06T08:31:15;19.47;;;10.23;;
9138;SDS011;4604;48.616;9.548;2024-03-06T08:33:42;17.03;;;11.00;;
9138;SDS011;4604;48.616;9.548;2024-03-06T08:36:09;15.87;;;10.00;;
9138;SDS011;4604;48.616;9.548;2024-03-06T08:38:36;21.70;;;10.50;;
9138;SDS011;4604;48.616;9.548;2024-03-06T08:41:02;15.40;;;10.40;;
9138;SDS011;4604;48.616;9.548;2024-03-06T08:43:31;15.23;;;9.80;;
9138;SDS011;4604;48.616;9.548;2024-03-06T08:45:57;16.10;;;10.10;;
9138;SDS011;4604;48.616;9.548;2024-03-06T08:48:25;14.77;;;9.73;;
9138;SDS011;4604;48.616;9.548;2024-03-06T08:50:52;18.63;;;10.03;;
9138;SDS011;4604;48.616;9.548;2024-03-06T08:53:19;17.60;;;10.73;;
9138;SDS011;4604;48.616;9.548;2024-03-06T08:55:46;16.40;;;9.73;;
9138;SDS011;4604;48.616;9.548;2024-03-06T08:58:12;16.87;;;9.80;;
9138;SDS011;4604;48.616;9.548;2024-03-06T09:00:40;18.53;;;10.83;;
9138;SDS011;4604;48.616;9.548;2024-03-06T09:03:06;19.90;;;10.20;;
9138;SDS011;4604;48.616;9.548;2024-03-06T09:05:34;17.17;;;9.93;;
9138;SDS011;4604;48.616;9.548;2024-03-06T09:08:01;16.90;;;9.97;;
9138;SDS011;4604;48.616;9.548;2024-03-06T09:10:28;18.43;;;10.67;;
9138;SDS011;4604;48.616;9.548;2024-03-06T09:12:54;16.87;;;10.10;;
9138;SDS011;4604;48.616;9.548;2024-03-06T09:15:21;19.53;;;11.73;;
9138;SDS011;4604;48.616;9.548;2024-03-06T09:17:48;15.33;;;10.70;;
9138;SDS011;4604;48.616;9.548;2024-03-06T09:20:15;18.60;;;10.73;;
9138;SDS011;4604;48.616;9.548;2024-03-06T09:22:43;17.27;;;10.00;;
9138;SDS011;4604;48.616;9.548;2024-03-06T09:25:10;16.20;;;10.03;;
9138;SDS011;4604;48.616;9.548;2024-03-06T09:27:38;19.73;;;10.43;;
9138;SDS011;4604;48.616;9.548;2024-03-06T09:30:05;20.33;;;10.20;;
9138;SDS011;4604;48.616;9.548;2024-03-06T09:32:34;20.63;;;11.07;;
9138;SDS011;4604;48.616;9.548;2024-03-06T09:35:00;17.87;;;10.77;;
9138;SDS011;4604;48.616;9.548;2024-03-06T09:37:27;17.77;;;10.63;;
9138;SDS011;4604;48.616;9.548;2024-03-06T09:39:55;15.50;;;10.10;;
9138;SDS011;4604;48.616;9.548;2024-03-06T09:42:22;18.17;;;9.77;;
9138;SDS011;4604;48.616;9.548;2024-03-06T09:44:49;22.73;;;10.60;;
9138;SDS011;4604;48.616;9.548;2024-03-06T09:47:18;18.03;;;10.30;;
9138;SDS011;4604;48.616;9.548;2024-03-06T09:49:48;15.70;;;9.33;;
9138;SDS011;4604;48.616;9.548;2024-03-06T09:52:16;17.63;;;10.23;;
9138;SDS011;4604;48.616;9.548;2024-03-06T09:54:43;16.07;;;10.17;;
9138;SDS011;4604;48.616;9.548;2024-03-06T09:57:11;18.60;;;10.00;;
9138;SDS011;4604;48.616;9.548;2024-03-06T09:59:40;18.00;;;11.13;;
9138;SDS011;4604;48.616;9.548;2024-03-06T10:02:10;15.03;;;9.83;;
9138;SDS011;4604;48.616;9.548;2024-03-06T10:04:45;16.40;;;10.30;;
9138;SDS011;4604;48.616;9.548;2024-03-06T10:07:12;18.53;;;11.23;;
9138;SDS011;4604;48.616;9.548;2024-03-06T10:09:39;15.60;;;10.50;;
9138;SDS011;4604;48.616;9.548;2024-03-06T10:12:06;17.73;;;10.90;;
9138;SDS011;4604;48.616;9.548;2024-03-06T10:14:34;16.40;;;10.43;;
9138;SDS011;4604;48.616;9.548;2024-03-06T10:17:02;15.87;;;9.97;;
9138;SDS011;4604;48.616;9.548;2024-03-06T10:19:29;17.83;;;10.67;;
9138;SDS011;4604;48.616;9.548;2024-03-06T10:21:56;16.20;;;10.20;;
9138;SDS011;4604;48.616;9.548;2024-03-06T10:24:24;18.37;;;10.57;;
9138;SDS011;4604;48.616;9.548;2024-03-06T10:26:52;17.50;;;10.43;;
9138;SDS011;4604;48.616;9.548;2024-03-06T10:29:21;22.00;;;10.77;;
9138;SDS011;4604;48.616;9.548;2024-03-06T10:31:51;17.70;;;10.23;;
9138;SDS011;4604;48.616;9.548;2024-03-06T10:34:20;15.43;;;10.20;;
9138;SDS011;4604;48.616;9.548;2024-03-06T10:36:48;17.63;;;10.30;;
9138;SDS011;4604;48.616;9.548;2024-03-06T10:39:20;15.13;;;9.53;;
9138;SDS011;4604;48.616;9.548;2024-03-06T10:41:47;14.57;;;9.17;;
9138;SDS011;4604;48.616;9.548;2024-03-06T10:44:20;14.73;;;9.07;;
9138;SDS011;4604;48.616;9.548;2024-03-06T10:46:47;16.17;;;9.93;;
9138;SDS011;4604;48.616;9.548;2024-03-06T10:49:22;13.87;;;9.33;;
9138;SDS011;4604;48.616;9.548;2024-03-06T10:51:50;13.70;;;9.23;;
9138;SDS011;4604;48.616;9.548;2024-03-06T10:54:19;13.70;;;9.20;;
9138;SDS011;4604;48.616;9.548;2024-03-06T10:56:47;14.80;;;9.47;;
9138;SDS011;4604;48.616;9.548;2024-03-06T10:59:14;14.37;;;9.60;;
9138;SDS011;4604;48.616;9.548;2024-03-06T11:01:42;20.67;;;10.80;;
9138;SDS011;4604;48.616;9.548;2024-03-06T11:04:13;16.83;;;10.30;;
9138;SDS011;4604;48.616;9.548;2024-03-06T11:06:40;16.90;;;9.97;;
9138;SDS011;4604;48.616;9.548;2024-03-06T11:09:07;16.23;;;10.03;;
9138;SDS011;4604;48.616;9.548;2024-03-06T11:11:47;13.90;;;9.67;;
9138;SDS011;4604;48.616;9.548;2024-03-06T11:14:14;13.80;;;9.83;;
9138;SDS011;4604;48.616;9.548;2024-03-06T11:16:56;16.30;;;10.27;;
9138;SDS011;4604;48.616;9.548;2024-03-06T11:19:28;15.47;;;10.60;;
9138;SDS011;4604;48.616;9.548;2024-03-06T11:21:56;15.73;;;9.70;;
9138;SDS011;4604;48.616;9.548;2024-03-06T11:24:23;13.40;;;9.10;;
9138;SDS011;4604;48.616;9.548;2024-03-06T11:26:57;16.83;;;9.67;;
9138;SDS011;4604;48.616;9.548;2024-03-06T11:29:27;15.90;;;10.27;;
9138;SDS011;4604;48.616;9.548;2024-03-06T11:32:02;15.87;;;9.70;;
9138;SDS011;4604;48.616;9.548;2024-03-06T11:34:33;16.97;;;9.47;;
9138;SDS011;4604;48.616;9.548;2024-03-06T11:37:03;15.23;;;9.70;;
9138;SDS011;4604;48.616;9.548;2024-03-06T11:39:33;19.43;;;10.23;;
9138;SDS011;4604;48.616;9.548;2024-03-06T11:42:01;15.90;;;9.87;;
9138;SDS011;4604;48.616;9.548;2024-03-06T11:44:31;22.73;;;13.80;;
9138;SDS011;4604;48.616;9.548;2024-03-06T11:46:58;23.93;;;14.13;;
9138;SDS011;4604;48.616;9.548;2024-03-06T11:49:26;21.90;;;12.30;;
9138;SDS011;4604;48.616;9.548;2024-03-06T11:51:58;20.13;;;11.53;;
9138;SDS011;4604;48.616;9.548;2024-03-06T11:54:27;17.37;;;10.23;;
9138;SDS011;4604;48.616;9.548;2024-03-06T11:56:55;19.53;;;10.53;;
9138;SDS011;4604;48.616;9.548;2024-03-06T11:59:22;16.60;;;10.53;;
9138;SDS011;4604;48.616;9.548;2024-03-06T12:01:50;17.37;;;10.60;;
9138;SDS011;4604;48.616;9.548;2024-03-06T12:04:18;17.30;;;10.40;;
9138;SDS011;4604;48.616;9.548;2024-03-06T12:06:45;18.53;;;10.90;;
9138;SDS011;4604;48.616;9.548;2024-03-06T12:09:13;17.50;;;10.83;;
9138;SDS011;4604;48.616;9.548;2024-03-06T12:11:40;17.37;;;10.60;;
9138;SDS011;4604;48.616;9.548;2024-03-06T12:14:12;17.33;;;10.87;;
9138;SDS011;4604;48.616;9.548;2024-03-06T12:16:39;19.07;;;11.47;;
9138;SDS011;4604;48.616;9.548;2024-03-06T12:19:06;18.40;;;11.60;;
9138;SDS011;4604;48.616;9.548;2024-03-06T12:21:34;20.30;;;12.20;;
9138;SDS011;4604;48.616;9.548;2024-03-06T12:24:03;18.03;;;11.40;;
9138;SDS011;4604;48.616;9.548;2024-03-06T12:26:31;20.10;;;11.13;;
9138;SDS011;4604;48.616;9.548;2024-03-06T12:29:05;20.33;;;11.63;;
9138;SDS011;4604;48.616;9.548;2024-03-06T12:31:33;20.73;;;11.37;;
9138;SDS011;4604;48.616;9.548;2024-03-06T12:34:01;24.97;;;12.00;;
9138;SDS011;4604;48.616;9.548;2024-03-06T12:36:29;22.77;;;13.50;;
9138;SDS011;4604;48.616;9.548;2024-03-06T12:38:56;23.43;;;12.33;;
9138;SDS011;4604;48.616;9.548;2024-03-06T12:41:24;24.07;;;12.73;;
9138;SDS011;4604;48.616;9.548;2024-03-06T12:43:54;24.10;;;12.93;;
9138;SDS011;4604;48.616;9.548;2024-03-06T12:46:21;20.03;;;12.33;;
9138;SDS011;4604;48.616;9.548;2024-03-06T12:48:48;23.70;;;12.67;;
9138;SDS011;4604;48.616;9.548;2024-03-06T12:51:15;20.10;;;12.43;;
9138;SDS011;4604;48.616;9.548;2024-03-06T12:53:42;21.80;;;13.10;;
9138;SDS011;4604;48.616;9.548;2024-03-06T12:56:08;24.47;;;14.00;;
9138;SDS011;4604;48.616;9.548;2024-03-06T12:58:36;26.20;;;13.93;;
9138;SDS011;4604;48.616;9.548;2024-03-06T13:01:04;25.27;;;14.17;;
9138;SDS011;4604;48.616;9.548;2024-03-06T13:03:31;21.97;;;12.70;;
9138;SDS011;4604;48.616;9.548;2024-03-06T13:05:57;22.40;;;13.30;;
9138;SDS011;4604;48.616;9.548;2024-03-06T13:08:25;24.13;;;13.47;;
9138;SDS011;4604;48.616;9.548;2024-03-06T13:10:53;26.90;;;14.50;;
9138;SDS011;4604;48.616;9.548;2024-03-06T13:13:19;21.90;;;12.97;;
9138;SDS011;4604;48.616;9.548;2024-03-06T13:15:48;22.77;;;13.33;;
9138;SDS011;4604;48.616;9.548;2024-03-06T13:18:17;22.33;;;13.83;;
9138;SDS011;4604;48.616;9.548;2024-03-06T13:20:44;24.97;;;13.20;;
9138;SDS011;4604;48.616;9.548;2024-03-06T13:23:10;28.57;;;14.00;;
9138;SDS011;4604;48.616;9.548;2024-03-06T13:25:37;26.03;;;13.90;;
9138;SDS011;4604;48.616;9.548;2024-03-06T13:28:04;23.83;;;13.80;;
9138;SDS011;4604;48.616;9.548;2024-03-06T13:30:32;23.23;;;12.50;;
9138;SDS011;4604;48.616;9.548;2024-03-06T13:32:58;29.90;;;13.57;;
9138;SDS011;4604;48.616;9.548;2024-03-06T13:35:27;22.73;;;14.60;;
9138;SDS011;4604;48.616;9.548;2024-03-06T13:37:53;28.20;;;14.73;;
9138;SDS011;4604;48.616;9.548;2024-03-06T13:40:20;23.33;;;13.70;;
9138;SDS011;4604;48.616;9.548;2024-03-06T13:42:47;22.83;;;13.30;;
9138;SDS011;4604;48.616;9.548;2024-03-06T13:45:14;22.40;;;13.77;;
9138;SDS011;4604;48.616;9.548;2024-03-06T13:47:41;26.23;;;14.17;;
9138;SDS011;4604;48.616;9.548;2024-03-06T13:50:12;23.90;;;14.70;;
9138;SDS011;4604;48.616;9.548;2024-03-06T13:52:41;30.73;;;15.80;;
9138;SDS011;4604;48.616;9.548;2024-03-06T13:55:08;29.07;;;14.73;;
9138;SDS011;4604;48.616;9.548;2024-03-06T13:57:37;23.43;;;14.77;;
9138;SDS011;4604;48.616;9.548;2024-03-06T14:00:05;23.97;;;13.57;;
9138;SDS011;4604;48.616;9.548;2024-03-06T14:02:37;26.37;;;13.00;;
9138;SDS011;4604;48.616;9.548;2024-03-06T14:05:04;25.80;;;14.10;;
9138;SDS011;4604;48.616;9.548;2024-03-06T14:07:31;25.97;;;14.53;;
9138;SDS011;4604;48.616;9.548;2024-03-06T14:10:00;25.93;;;14.73;;
9138;SDS011;4604;48.616;9.548;2024-03-06T14:12:27;23.43;;;13.90;;
9138;SDS011;4604;48.616;9.548;2024-03-06T14:14:53;26.20;;;14.20;;
9138;SDS011;4604;48.616;9.548;2024-03-06T14:17:20;28.97;;;16.47;;
9138;SDS011;4604;48.616;9.548;2024-03-06T14:19:47;24.83;;;15.43;;
9138;SDS011;4604;48.616;9.548;2024-03-06T14:22:14;29.57;;;16.60;;
9138;SDS011;4604;48.616;9.548;2024-03-06T14:24:41;26.37;;;14.77;;
9138;SDS011;4604;48.616;9.548;2024-03-06T14:27:09;29.27;;;15.60;;
9138;SDS011;4604;48.616;9.548;2024-03-06T14:29:36;36.73;;;19.77;;
9138;SDS011;4604;48.616;9.548;2024-03-06T14:32:03;29.73;;;16.40;;
9138;SDS011;4604;48.616;9.548;2024-03-06T14:34:31;30.83;;;17.40;;
9138;SDS011;4604;48.616;9.548;2024-03-06T14:36:57;26.30;;;15.93;;
9138;SDS011;4604;48.616;9.548;2024-03-06T14:39:24;29.33;;;14.83;;
9138;SDS011;4604;48.616;9.548;2024-03-06T14:41:51;26.47;;;15.17;;
9138;SDS011;4604;48.616;9.548;2024-03-06T14:44:19;27.23;;;15.23;;
9138;SDS011;4604;48.616;9.548;2024-03-06T14:46:46;31.47;;;16.47;;
9138;SDS011;4604;48.616;9.548;2024-03-06T14:49:13;24.37;;;14.60;;
9138;SDS011;4604;48.616;9.548;2024-03-06T14:51:45;27.63;;;14.17;;
9138;SDS011;4604;48.616;9.548;2024-03-06T14:54:11;25.63;;;14.33;;
9138;SDS011;4604;48.616;9.548;2024-03-06T14:56:39;24.43;;;15.20;;
9138;SDS011;4604;48.616;9.548;2024-03-06T14:59:06;28.20;;;15.10;;
9138;SDS011;4604;48.616;9.548;2024-03-06T15:01:34;24.03;;;13.73;;
9138;SDS011;4604;48.616;9.548;2024-03-06T15:04:02;30.10;;;14.23;;
9138;SDS011;4604;48.616;9.548;2024-03-06T15:06:29;23.90;;;13.10;;
9138;SDS011;4604;48.616;9.548;2024-03-06T15:08:56;24.43;;;12.77;;
9138;SDS011;4604;48.616;9.548;2024-03-06T15:11:23;27.30;;;13.77;;
9138;SDS011;4604;48.616;9.548;2024-03-06T15:13:50;27.77;;;13.93;;